sensor_id;sensor_type;location;lat;lon;timestamp;P1;durP1;ratioP1;P2;durP2;ratioP2
9056;SDS011;4563;54.756;9.400;2023-01-31T00:00:24;7.20;;;1.30;;
9056;SDS011;4563;54.756;9.400;2023-01-31T00:02:51;12.33;;;1.17;;
9056;SDS011;4563;54.756;9.400;2023-01-31T00:05:19;11.27;;;1.30;;
9056;SDS011;4563;54.756;9.400;2023-01-31T00:07:46;17.83;;;1.80;;
9056;SDS011;4563;54.756;9.400;2023-01-31T00:10:13;11.27;;;1.47;;
9056;SDS011;4563;54.756;9.400;2023-01-31T00:12:40;11.00;;;1.73;;
9056;SDS011;4563;54.756;9.400;2023-01-31T00:15:07;14.60;;;1.87;;
9056;SDS011;4563;54.756;9.400;2023-01-31T00:17:34;8.40;;;1.30;;
9056;SDS011;4563;54.756;9.400;2023-01-31T00:20:01;16.17;;;1.63;;
9056;SDS011;4563;54.756;9.400;2023-01-31T00:22:29;6.07;;;0.93;;
9056;SDS011;4563;54.756;9.400;2023-01-31T00:24:56;11.77;;;1.20;;
9056;SDS011;4563;54.756;9.400;2023-01-31T00:27:23;10.70;;;1.43;;
9056;SDS011;4563;54.756;9.400;2023-01-31T00:29:50;6.97;;;0.77;;
9056;SDS011;4563;54.756;9.400;2023-01-31T00:32:16;12.70;;;1.00;;
9056;SDS011;4563;54.756;9.400;2023-01-31T00:34:43;10.37;;;0.97;;
9056;SDS011;4563;54.756;9.400;2023-01-31T00:37:10;5.47;;;1.47;;
9056;SDS011;4563;54.756;9.400;2023-01-31T00:39:38;8.67;;;1.13;;
9056;SDS011;4563;54.756;9.400;2023-01-31T00:42:05;14.37;;;1.50;;
9056;SDS011;4563;54.756;9.400;2023-01-31T00:44:31;10.77;;;1.03;;
9056;SDS011;4563;54.756;9.400;2023-01-31T00:46:58;6.23;;;0.80;;
9056;SDS011;4563;54.756;9.400;2023-01-31T00:49:25;6.60;;;0.73;;
9056;SDS011;4563;54.756;9.400;2023-01-31T00:51:52;8.60;;;0.80;;
9056;SDS011;4563;54.756;9.400;2023-01-31T00:54:19;9.17;;;1.07;;
9056;SDS011;4563;54.756;9.400;2023-01-31T00:56:47;3.40;;;0.80;;
9056;SDS011;4563;54.756;9.400;2023-01-31T00:59:14;4.70;;;0.63;;
9056;SDS011;4563;54.756;9.400;2023-01-31T01:01:40;12.33;;;0.90;;
9056;SDS011;4563;54.756;9.400;2023-01-31T01:04:07;6.90;;;1.23;;
9056;SDS011;4563;54.756;9.400;2023-01-31T01:06:36;5.57;;;0.70;;
9056;SDS011;4563;54.756;9.400;2023-01-31T01:09:05;5.47;;;0.70;;
9056;SDS011;4563;54.756;9.400;2023-01-31T01:11:32;5.20;;;0.53;;
9056;SDS011;4563;54.756;9.400;2023-01-31T01:14:01;6.27;;;0.90;;
9056;SDS011;4563;54.756;9.400;2023-01-31T01:16:30;7.23;;;1.03;;
9056;SDS011;4563;54.756;9.400;2023-01-31T01:18:59;8.93;;;0.83;;
9056;SDS011;4563;54.756;9.400;2023-01-31T01:21:28;8.87;;;1.20;;
9056;SDS011;4563;54.756;9.400;2023-01-31T01:23:56;11.83;;;0.73;;
9056;SDS011;4563;54.756;9.400;2023-01-31T01:26:26;7.47;;;0.70;;
9056;SDS011;4563;54.756;9.400;2023-01-31T01:28:55;8.50;;;0.87;;
9056;SDS011;4563;54.756;9.400;2023-01-31T01:31:25;7.70;;;1.00;;
9056;SDS011;4563;54.756;9.400;2023-01-31T01:33:54;11.20;;;1.10;;
9056;SDS011;4563;54.756;9.400;2023-01-31T01:36:22;6.70;;;0.87;;
9056;SDS011;4563;54.756;9.400;2023-01-31T01:38:50;5.17;;;0.70;;
9056;SDS011;4563;54.756;9.400;2023-01-31T01:41:17;5.33;;;0.90;;
9056;SDS011;4563;54.756;9.400;2023-01-31T01:43:46;7.43;;;1.00;;
9056;SDS011;4563;54.756;9.400;2023-01-31T01:46:15;10.77;;;0.93;;
9056;SDS011;4563;54.756;9.400;2023-01-31T01:48:47;12.13;;;1.43;;
9056;SDS011;4563;54.756;9.400;2023-01-31T01:51:18;9.17;;;1.10;;
9056;SDS011;4563;54.756;9.400;2023-01-31T01:53:46;6.20;;;0.83;;
9056;SDS011;4563;54.756;9.400;2023-01-31T01:56:16;12.77;;;1.20;;
9056;SDS011;4563;54.756;9.400;2023-01-31T01:58:47;7.70;;;0.87;;
9056;SDS011;4563;54.756;9.400;2023-01-31T02:01:19;8.40;;;1.10;;
9056;SDS011;4563;54.756;9.400;2023-01-31T02:03:49;9.13;;;1.10;;
9056;SDS011;4563;54.756;9.400;2023-01-31T02:06:18;5.87;;;1.10;;
9056;SDS011;4563;54.756;9.400;2023-01-31T02:08:45;6.17;;;1.30;;
9056;SDS011;4563;54.756;9.400;2023-01-31T02:11:14;10.90;;;1.80;;
9056;SDS011;4563;54.756;9.400;2023-01-31T02:13:46;13.73;;;1.80;;
9056;SDS011;4563;54.756;9.400;2023-01-31T02:16:15;9.90;;;1.10;;
9056;SDS011;4563;54.756;9.400;2023-01-31T02:18:42;6.93;;;1.10;;
9056;SDS011;4563;54.756;9.400;2023-01-31T02:21:18;13.67;;;1.30;;
9056;SDS011;4563;54.756;9.400;2023-01-31T02:24:26;11.93;;;1.03;;
9056;SDS011;4563;54.756;9.400;2023-01-31T02:30:20;12.93;;;1.40;;
9056;SDS011;4563;54.756;9.400;2023-01-31T02:33:06;14.60;;;1.33;;
9056;SDS011;4563;54.756;9.400;2023-01-31T02:35:45;19.70;;;1.60;;
9056;SDS011;4563;54.756;9.400;2023-01-31T02:38:19;13.20;;;1.63;;
9056;SDS011;4563;54.756;9.400;2023-01-31T02:40:57;12.43;;;1.83;;
9056;SDS011;4563;54.756;9.400;2023-01-31T02:43:33;11.80;;;1.90;;
9056;SDS011;4563;54.756;9.400;2023-01-31T02:46:30;16.57;;;1.77;;
9056;SDS011;4563;54.756;9.400;2023-01-31T02:49:03;11.03;;;1.27;;
9056;SDS011;4563;54.756;9.400;2023-01-31T02:51:35;12.70;;;2.23;;
9056;SDS011;4563;54.756;9.400;2023-01-31T02:54:28;18.47;;;1.83;;
9056;SDS011;4563;54.756;9.400;2023-01-31T02:57:18;9.70;;;1.53;;
9056;SDS011;4563;54.756;9.400;2023-01-31T02:59:45;14.13;;;1.80;;
9056;SDS011;4563;54.756;9.400;2023-01-31T03:02:11;10.00;;;1.73;;
9056;SDS011;4563;54.756;9.400;2023-01-31T03:04:40;10.40;;;1.37;;
9056;SDS011;4563;54.756;9.400;2023-01-31T03:07:09;15.10;;;1.43;;
9056;SDS011;4563;54.756;9.400;2023-01-31T03:09:43;11.97;;;1.23;;
9056;SDS011;4563;54.756;9.400;2023-01-31T03:12:22;19.63;;;1.43;;
9056;SDS011;4563;54.756;9.400;2023-01-31T03:15:00;14.97;;;1.60;;
9056;SDS011;4563;54.756;9.400;2023-01-31T03:17:37;9.50;;;1.50;;
9056;SDS011;4563;54.756;9.400;2023-01-31T03:20:14;14.60;;;1.30;;
9056;SDS011;4563;54.756;9.400;2023-01-31T03:22:44;17.13;;;1.80;;
9056;SDS011;4563;54.756;9.400;2023-01-31T03:25:14;9.97;;;1.63;;
9056;SDS011;4563;54.756;9.400;2023-01-31T03:27:44;15.63;;;2.37;;
9056;SDS011;4563;54.756;9.400;2023-01-31T03:30:17;20.13;;;1.63;;
9056;SDS011;4563;54.756;9.400;2023-01-31T03:32:48;14.17;;;2.23;;
9056;SDS011;4563;54.756;9.400;2023-01-31T03:35:20;15.33;;;1.67;;
9056;SDS011;4563;54.756;9.400;2023-01-31T03:37:53;16.33;;;1.83;;
9056;SDS011;4563;54.756;9.400;2023-01-31T03:40:26;14.97;;;1.77;;
9056;SDS011;4563;54.756;9.400;2023-01-31T03:42:59;10.80;;;2.00;;
9056;SDS011;4563;54.756;9.400;2023-01-31T03:45:31;10.57;;;1.97;;
9056;SDS011;4563;54.756;9.400;2023-01-31T03:48:01;17.63;;;1.97;;
9056;SDS011;4563;54.756;9.400;2023-01-31T03:50:34;13.53;;;1.47;;
9056;SDS011;4563;54.756;9.400;2023-01-31T03:53:05;12.47;;;1.30;;
9056;SDS011;4563;54.756;9.400;2023-01-31T03:55:36;14.07;;;1.37;;
9056;SDS011;4563;54.756;9.400;2023-01-31T03:58:07;9.40;;;1.43;;
9056;SDS011;4563;54.756;9.400;2023-01-31T04:00:37;15.33;;;1.90;;
9056;SDS011;4563;54.756;9.400;2023-01-31T04:03:09;10.33;;;1.27;;
9056;SDS011;4563;54.756;9.400;2023-01-31T04:05:41;7.67;;;1.17;;
9056;SDS011;4563;54.756;9.400;2023-01-31T04:08:09;12.53;;;1.53;;
9056;SDS011;4563;54.756;9.400;2023-01-31T04:10:36;12.10;;;1.37;;
9056;SDS011;4563;54.756;9.400;2023-01-31T04:13:03;13.13;;;1.87;;
9056;SDS011;4563;54.756;9.400;2023-01-31T04:15:30;9.90;;;1.10;;
9056;SDS011;4563;54.756;9.400;2023-01-31T04:17:56;13.87;;;1.33;;
9056;SDS011;4563;54.756;9.400;2023-01-31T04:20:23;6.00;;;1.00;;
9056;SDS011;4563;54.756;9.400;2023-01-31T04:22:51;8.13;;;1.03;;
9056;SDS011;4563;54.756;9.400;2023-01-31T04:25:18;7.90;;;1.10;;
9056;SDS011;4563;54.756;9.400;2023-01-31T04:27:45;8.07;;;1.13;;
9056;SDS011;4563;54.756;9.400;2023-01-31T04:30:12;10.03;;;0.93;;
9056;SDS011;4563;54.756;9.400;2023-01-31T04:32:39;6.20;;;1.00;;
9056;SDS011;4563;54.756;9.400;2023-01-31T04:35:05;7.40;;;1.00;;
9056;SDS011;4563;54.756;9.400;2023-01-31T04:37:33;14.90;;;1.40;;
9056;SDS011;4563;54.756;9.400;2023-01-31T04:40:02;15.63;;;1.53;;
9056;SDS011;4563;54.756;9.400;2023-01-31T04:42:29;12.40;;;1.37;;
9056;SDS011;4563;54.756;9.400;2023-01-31T04:44:56;8.93;;;1.10;;
9056;SDS011;4563;54.756;9.400;2023-01-31T04:47:23;5.27;;;0.90;;
9056;SDS011;4563;54.756;9.400;2023-01-31T04:49:50;9.73;;;1.03;;
9056;SDS011;4563;54.756;9.400;2023-01-31T04:52:17;9.87;;;1.17;;
9056;SDS011;4563;54.756;9.400;2023-01-31T04:54:44;7.07;;;1.00;;
9056;SDS011;4563;54.756;9.400;2023-01-31T04:57:12;11.70;;;1.20;;
9056;SDS011;4563;54.756;9.400;2023-01-31T04:59:38;15.37;;;1.20;;
9056;SDS011;4563;54.756;9.400;2023-01-31T05:02:05;13.30;;;1.10;;
9056;SDS011;4563;54.756;9.400;2023-01-31T05:04:32;13.33;;;1.17;;
9056;SDS011;4563;54.756;9.400;2023-01-31T05:06:59;11.10;;;0.90;;
9056;SDS011;4563;54.756;9.400;2023-01-31T05:09:26;9.97;;;1.00;;
9056;SDS011;4563;54.756;9.400;2023-01-31T05:11:52;7.93;;;1.10;;
9056;SDS011;4563;54.756;9.400;2023-01-31T05:14:21;10.40;;;1.13;;
9056;SDS011;4563;54.756;9.400;2023-01-31T05:16:47;6.00;;;1.10;;
9056;SDS011;4563;54.756;9.400;2023-01-31T05:19:14;13.13;;;1.37;;
9056;SDS011;4563;54.756;9.400;2023-01-31T05:21:41;13.40;;;1.23;;
9056;SDS011;4563;54.756;9.400;2023-01-31T05:24:23;11.80;;;1.43;;
9056;SDS011;4563;54.756;9.400;2023-01-31T05:26:51;10.73;;;1.37;;
9056;SDS011;4563;54.756;9.400;2023-01-31T05:29:23;14.00;;;1.67;;
9056;SDS011;4563;54.756;9.400;2023-01-31T05:31:50;11.93;;;1.20;;
9056;SDS011;4563;54.756;9.400;2023-01-31T05:34:17;14.33;;;1.83;;
9056;SDS011;4563;54.756;9.400;2023-01-31T05:36:45;9.90;;;1.20;;
9056;SDS011;4563;54.756;9.400;2023-01-31T05:39:11;9.40;;;1.40;;
9056;SDS011;4563;54.756;9.400;2023-01-31T05:41:38;12.47;;;1.57;;
9056;SDS011;4563;54.756;9.400;2023-01-31T05:44:05;18.30;;;1.40;;
9056;SDS011;4563;54.756;9.400;2023-01-31T05:46:33;12.07;;;2.50;;
9056;SDS011;4563;54.756;9.400;2023-01-31T05:49:00;8.57;;;1.80;;
9056;SDS011;4563;54.756;9.400;2023-01-31T05:51:27;22.70;;;1.67;;
9056;SDS011;4563;54.756;9.400;2023-01-31T05:53:53;14.63;;;1.43;;
9056;SDS011;4563;54.756;9.400;2023-01-31T05:56:20;20.63;;;1.70;;
9056;SDS011;4563;54.756;9.400;2023-01-31T05:58:47;13.77;;;2.27;;
9056;SDS011;4563;54.756;9.400;2023-01-31T06:01:15;19.33;;;1.43;;
9056;SDS011;4563;54.756;9.400;2023-01-31T06:03:44;15.60;;;1.47;;
9056;SDS011;4563;54.756;9.400;2023-01-31T06:06:11;16.23;;;1.30;;
9056;SDS011;4563;54.756;9.400;2023-01-31T06:08:38;12.47;;;1.80;;
9056;SDS011;4563;54.756;9.400;2023-01-31T06:11:06;15.70;;;2.03;;
9056;SDS011;4563;54.756;9.400;2023-01-31T06:13:35;25.50;;;2.23;;
9056;SDS011;4563;54.756;9.400;2023-01-31T06:16:02;22.07;;;1.83;;
9056;SDS011;4563;54.756;9.400;2023-01-31T06:18:30;23.73;;;4.30;;
9056;SDS011;4563;54.756;9.400;2023-01-31T06:20:58;18.87;;;2.07;;
9056;SDS011;4563;54.756;9.400;2023-01-31T06:23:25;23.43;;;2.27;;
9056;SDS011;4563;54.756;9.400;2023-01-31T06:25:52;18.57;;;1.83;;
9056;SDS011;4563;54.756;9.400;2023-01-31T06:28:19;20.17;;;2.00;;
9056;SDS011;4563;54.756;9.400;2023-01-31T06:30:47;23.30;;;2.20;;
9056;SDS011;4563;54.756;9.400;2023-01-31T06:33:14;17.73;;;2.23;;
9056;SDS011;4563;54.756;9.400;2023-01-31T06:35:41;18.23;;;1.90;;
9056;SDS011;4563;54.756;9.400;2023-01-31T06:38:11;16.57;;;2.00;;
9056;SDS011;4563;54.756;9.400;2023-01-31T06:40:40;23.47;;;2.70;;
9056;SDS011;4563;54.756;9.400;2023-01-31T06:43:07;16.33;;;1.93;;
9056;SDS011;4563;54.756;9.400;2023-01-31T06:45:34;18.33;;;2.67;;
9056;SDS011;4563;54.756;9.400;2023-01-31T06:48:01;20.80;;;2.27;;
9056;SDS011;4563;54.756;9.400;2023-01-31T06:50:28;25.10;;;3.30;;
9056;SDS011;4563;54.756;9.400;2023-01-31T06:52:55;20.03;;;2.70;;
9056;SDS011;4563;54.756;9.400;2023-01-31T06:55:24;21.47;;;3.37;;
9056;SDS011;4563;54.756;9.400;2023-01-31T06:57:51;14.87;;;2.43;;
9056;SDS011;4563;54.756;9.400;2023-01-31T07:00:20;36.77;;;2.60;;
9056;SDS011;4563;54.756;9.400;2023-01-31T07:02:48;24.30;;;2.40;;
9056;SDS011;4563;54.756;9.400;2023-01-31T07:05:16;22.00;;;3.03;;
9056;SDS011;4563;54.756;9.400;2023-01-31T07:07:43;19.77;;;2.50;;
9056;SDS011;4563;54.756;9.400;2023-01-31T07:10:11;17.10;;;2.13;;
9056;SDS011;4563;54.756;9.400;2023-01-31T07:12:39;14.10;;;2.30;;
9056;SDS011;4563;54.756;9.400;2023-01-31T07:15:06;15.53;;;2.10;;
9056;SDS011;4563;54.756;9.400;2023-01-31T07:17:34;14.57;;;2.10;;
9056;SDS011;4563;54.756;9.400;2023-01-31T07:20:01;14.00;;;2.70;;
9056;SDS011;4563;54.756;9.400;2023-01-31T07:22:28;17.37;;;2.40;;
9056;SDS011;4563;54.756;9.400;2023-01-31T07:24:56;20.63;;;2.23;;
9056;SDS011;4563;54.756;9.400;2023-01-31T07:27:22;18.80;;;2.20;;
9056;SDS011;4563;54.756;9.400;2023-01-31T07:29:50;22.10;;;2.00;;
9056;SDS011;4563;54.756;9.400;2023-01-31T07:32:17;29.70;;;2.20;;
9056;SDS011;4563;54.756;9.400;2023-01-31T07:34:44;26.23;;;2.83;;
9056;SDS011;4563;54.756;9.400;2023-01-31T07:37:11;30.33;;;2.97;;
9056;SDS011;4563;54.756;9.400;2023-01-31T07:39:38;28.90;;;3.03;;
9056;SDS011;4563;54.756;9.400;2023-01-31T07:42:07;20.20;;;1.83;;
9056;SDS011;4563;54.756;9.400;2023-01-31T07:44:34;19.50;;;2.57;;
9056;SDS011;4563;54.756;9.400;2023-01-31T07:47:02;15.50;;;1.90;;
9056;SDS011;4563;54.756;9.400;2023-01-31T07:49:28;18.10;;;2.23;;
9056;SDS011;4563;54.756;9.400;2023-01-31T07:51:55;17.03;;;1.90;;
9056;SDS011;4563;54.756;9.400;2023-01-31T07:54:22;23.47;;;2.20;;
9056;SDS011;4563;54.756;9.400;2023-01-31T07:56:49;21.50;;;2.90;;
9056;SDS011;4563;54.756;9.400;2023-01-31T07:59:16;18.20;;;2.47;;
9056;SDS011;4563;54.756;9.400;2023-01-31T08:01:42;24.10;;;2.50;;
9056;SDS011;4563;54.756;9.400;2023-01-31T08:04:32;13.33;;;1.70;;
9056;SDS011;4563;54.756;9.400;2023-01-31T08:06:59;13.73;;;1.83;;
9056;SDS011;4563;54.756;9.400;2023-01-31T08:09:27;13.10;;;1.77;;
9056;SDS011;4563;54.756;9.400;2023-01-31T08:11:54;17.00;;;2.23;;
9056;SDS011;4563;54.756;9.400;2023-01-31T08:14:21;24.33;;;2.40;;
9056;SDS011;4563;54.756;9.400;2023-01-31T08:16:49;16.53;;;2.23;;
9056;SDS011;4563;54.756;9.400;2023-01-31T08:19:16;24.17;;;3.20;;
9056;SDS011;4563;54.756;9.400;2023-01-31T08:21:44;15.77;;;2.17;;
9056;SDS011;4563;54.756;9.400;2023-01-31T08:24:11;16.77;;;2.20;;
9056;SDS011;4563;54.756;9.400;2023-01-31T08:26:37;21.13;;;2.80;;
9056;SDS011;4563;54.756;9.400;2023-01-31T08:29:04;25.77;;;2.63;;
9056;SDS011;4563;54.756;9.400;2023-01-31T08:31:32;15.17;;;2.03;;
9056;SDS011;4563;54.756;9.400;2023-01-31T08:34:01;25.03;;;3.37;;
9056;SDS011;4563;54.756;9.400;2023-01-31T08:36:29;21.43;;;2.67;;
9056;SDS011;4563;54.756;9.400;2023-01-31T08:38:58;24.17;;;2.33;;
9056;SDS011;4563;54.756;9.400;2023-01-31T08:41:25;24.13;;;2.30;;
9056;SDS011;4563;54.756;9.400;2023-01-31T08:43:54;33.27;;;2.67;;
9056;SDS011;4563;54.756;9.400;2023-01-31T08:46:22;20.97;;;2.20;;
9056;SDS011;4563;54.756;9.400;2023-01-31T08:48:49;19.60;;;2.43;;
9056;SDS011;4563;54.756;9.400;2023-01-31T08:51:16;23.47;;;2.73;;
9056;SDS011;4563;54.756;9.400;2023-01-31T08:53:43;21.83;;;2.70;;
9056;SDS011;4563;54.756;9.400;2023-01-31T08:56:12;17.23;;;2.67;;
9056;SDS011;4563;54.756;9.400;2023-01-31T08:58:39;24.00;;;3.37;;
9056;SDS011;4563;54.756;9.400;2023-01-31T09:01:08;24.43;;;3.37;;
9056;SDS011;4563;54.756;9.400;2023-01-31T09:03:36;19.87;;;2.17;;
9056;SDS011;4563;54.756;9.400;2023-01-31T09:06:04;14.00;;;2.83;;
9056;SDS011;4563;54.756;9.400;2023-01-31T09:08:33;11.53;;;2.33;;
9056;SDS011;4563;54.756;9.400;2023-01-31T09:11:00;14.13;;;2.00;;
9056;SDS011;4563;54.756;9.400;2023-01-31T09:13:28;19.37;;;6.63;;
9056;SDS011;4563;54.756;9.400;2023-01-31T09:15:56;14.57;;;2.70;;
9056;SDS011;4563;54.756;9.400;2023-01-31T09:18:23;13.83;;;2.03;;
9056;SDS011;4563;54.756;9.400;2023-01-31T09:20:50;18.97;;;2.30;;
9056;SDS011;4563;54.756;9.400;2023-01-31T09:23:17;12.43;;;1.87;;
9056;SDS011;4563;54.756;9.400;2023-01-31T09:25:46;13.33;;;2.20;;
9056;SDS011;4563;54.756;9.400;2023-01-31T09:28:17;17.80;;;2.33;;
9056;SDS011;4563;54.756;9.400;2023-01-31T09:30:45;10.17;;;2.07;;
9056;SDS011;4563;54.756;9.400;2023-01-31T09:33:12;16.43;;;2.53;;
9056;SDS011;4563;54.756;9.400;2023-01-31T09:35:38;14.00;;;2.87;;
9056;SDS011;4563;54.756;9.400;2023-01-31T09:38:05;14.40;;;1.97;;
9056;SDS011;4563;54.756;9.400;2023-01-31T09:40:33;12.30;;;2.00;;
9056;SDS011;4563;54.756;9.400;2023-01-31T09:43:03;12.67;;;2.20;;
9056;SDS011;4563;54.756;9.400;2023-01-31T09:45:31;21.97;;;2.17;;
9056;SDS011;4563;54.756;9.400;2023-01-31T09:48:01;19.20;;;2.70;;
9056;SDS011;4563;54.756;9.400;2023-01-31T09:50:30;18.83;;;2.60;;
9056;SDS011;4563;54.756;9.400;2023-01-31T09:53:00;19.33;;;2.90;;
9056;SDS011;4563;54.756;9.400;2023-01-31T09:55:29;19.03;;;2.47;;
9056;SDS011;4563;54.756;9.400;2023-01-31T09:58:03;22.00;;;2.80;;
9056;SDS011;4563;54.756;9.400;2023-01-31T10:00:42;14.27;;;2.73;;
9056;SDS011;4563;54.756;9.400;2023-01-31T10:03:20;17.77;;;2.93;;
9056;SDS011;4563;54.756;9.400;2023-01-31T10:06:02;14.87;;;2.37;;
9056;SDS011;4563;54.756;9.400;2023-01-31T10:08:38;24.47;;;2.67;;
9056;SDS011;4563;54.756;9.400;2023-01-31T10:11:10;14.17;;;2.23;;
9056;SDS011;4563;54.756;9.400;2023-01-31T10:13:42;16.37;;;2.47;;
9056;SDS011;4563;54.756;9.400;2023-01-31T10:16:16;18.13;;;2.70;;
9056;SDS011;4563;54.756;9.400;2023-01-31T10:18:52;16.17;;;2.90;;
9056;SDS011;4563;54.756;9.400;2023-01-31T10:21:24;14.07;;;2.30;;
9056;SDS011;4563;54.756;9.400;2023-01-31T10:23:55;14.30;;;1.77;;
9056;SDS011;4563;54.756;9.400;2023-01-31T10:26:28;14.87;;;1.90;;
9056;SDS011;4563;54.756;9.400;2023-01-31T10:28:57;5.67;;;1.50;;
9056;SDS011;4563;54.756;9.400;2023-01-31T10:31:28;12.50;;;1.93;;
9056;SDS011;4563;54.756;9.400;2023-01-31T10:34:01;10.17;;;1.40;;
9056;SDS011;4563;54.756;9.400;2023-01-31T10:36:36;10.60;;;1.20;;
9056;SDS011;4563;54.756;9.400;2023-01-31T10:39:11;10.63;;;1.30;;
9056;SDS011;4563;54.756;9.400;2023-01-31T10:41:50;7.53;;;1.17;;
9056;SDS011;4563;54.756;9.400;2023-01-31T10:44:33;12.87;;;1.67;;
9056;SDS011;4563;54.756;9.400;2023-01-31T10:47:08;13.10;;;1.37;;
9056;SDS011;4563;54.756;9.400;2023-01-31T10:49:39;6.40;;;1.70;;
9056;SDS011;4563;54.756;9.400;2023-01-31T10:52:15;17.57;;;1.97;;
9056;SDS011;4563;54.756;9.400;2023-01-31T10:54:57;14.27;;;2.23;;
9056;SDS011;4563;54.756;9.400;2023-01-31T10:57:36;15.03;;;1.57;;
9056;SDS011;4563;54.756;9.400;2023-01-31T11:00:03;10.80;;;1.50;;
9056;SDS011;4563;54.756;9.400;2023-01-31T11:02:31;14.90;;;2.33;;
9056;SDS011;4563;54.756;9.400;2023-01-31T11:04:59;11.17;;;2.00;;
9056;SDS011;4563;54.756;9.400;2023-01-31T11:07:27;8.90;;;1.80;;
9056;SDS011;4563;54.756;9.400;2023-01-31T11:09:55;15.33;;;1.77;;
9056;SDS011;4563;54.756;9.400;2023-01-31T11:12:38;10.23;;;1.40;;
9056;SDS011;4563;54.756;9.400;2023-01-31T11:15:10;10.50;;;1.37;;
9056;SDS011;4563;54.756;9.400;2023-01-31T11:17:41;16.33;;;2.03;;
9056;SDS011;4563;54.756;9.400;2023-01-31T11:20:20;17.00;;;1.87;;
9056;SDS011;4563;54.756;9.400;2023-01-31T11:22:50;13.67;;;2.30;;
9056;SDS011;4563;54.756;9.400;2023-01-31T11:25:18;20.97;;;1.87;;
9056;SDS011;4563;54.756;9.400;2023-01-31T11:27:46;17.30;;;2.27;;
9056;SDS011;4563;54.756;9.400;2023-01-31T11:30:21;21.33;;;2.10;;
9056;SDS011;4563;54.756;9.400;2023-01-31T11:32:50;15.30;;;1.90;;
9056;SDS011;4563;54.756;9.400;2023-01-31T11:35:22;17.50;;;1.43;;
9056;SDS011;4563;54.756;9.400;2023-01-31T11:37:52;20.93;;;2.23;;
9056;SDS011;4563;54.756;9.400;2023-01-31T11:40:21;6.70;;;1.67;;
9056;SDS011;4563;54.756;9.400;2023-01-31T11:42:54;13.37;;;2.00;;
9056;SDS011;4563;54.756;9.400;2023-01-31T11:45:22;13.97;;;1.60;;
9056;SDS011;4563;54.756;9.400;2023-01-31T11:47:52;12.70;;;1.47;;
9056;SDS011;4563;54.756;9.400;2023-01-31T11:50:23;14.30;;;1.67;;
9056;SDS011;4563;54.756;9.400;2023-01-31T11:52:56;18.90;;;2.03;;
9056;SDS011;4563;54.756;9.400;2023-01-31T11:55:24;22.73;;;3.20;;
9056;SDS011;4563;54.756;9.400;2023-01-31T11:57:53;28.47;;;2.57;;
9056;SDS011;4563;54.756;9.400;2023-01-31T12:00:23;32.33;;;3.40;;
9056;SDS011;4563;54.756;9.400;2023-01-31T12:02:52;23.77;;;3.40;;
9056;SDS011;4563;54.756;9.400;2023-01-31T12:05:33;47.43;;;5.00;;
9056;SDS011;4563;54.756;9.400;2023-01-31T12:08:02;56.17;;;6.10;;
9056;SDS011;4563;54.756;9.400;2023-01-31T12:10:32;43.93;;;4.97;;
9056;SDS011;4563;54.756;9.400;2023-01-31T12:13:02;49.50;;;5.17;;
9056;SDS011;4563;54.756;9.400;2023-01-31T12:15:44;40.93;;;4.60;;
9056;SDS011;4563;54.756;9.400;2023-01-31T12:18:18;52.90;;;7.23;;
9056;SDS011;4563;54.756;9.400;2023-01-31T12:21:00;39.03;;;4.87;;
9056;SDS011;4563;54.756;9.400;2023-01-31T12:23:34;48.27;;;5.60;;
9056;SDS011;4563;54.756;9.400;2023-01-31T12:26:10;42.33;;;5.27;;
9056;SDS011;4563;54.756;9.400;2023-01-31T12:28:48;49.20;;;5.63;;
9056;SDS011;4563;54.756;9.400;2023-01-31T12:31:33;46.13;;;7.47;;
9056;SDS011;4563;54.756;9.400;2023-01-31T12:34:20;38.53;;;6.03;;
9056;SDS011;4563;54.756;9.400;2023-01-31T12:37:14;52.97;;;5.20;;
9056;SDS011;4563;54.756;9.400;2023-01-31T12:39:54;60.07;;;10.07;;
9056;SDS011;4563;54.756;9.400;2023-01-31T12:42:31;65.50;;;9.93;;
9056;SDS011;4563;54.756;9.400;2023-01-31T12:45:20;52.40;;;8.63;;
9056;SDS011;4563;54.756;9.400;2023-01-31T12:48:12;58.90;;;8.67;;
9056;SDS011;4563;54.756;9.400;2023-01-31T12:51:02;53.77;;;10.00;;
9056;SDS011;4563;54.756;9.400;2023-01-31T12:53:42;55.10;;;11.17;;
9056;SDS011;4563;54.756;9.400;2023-01-31T12:56:25;49.67;;;7.53;;
9056;SDS011;4563;54.756;9.400;2023-01-31T12:59:02;42.23;;;5.10;;
9056;SDS011;4563;54.756;9.400;2023-01-31T13:01:36;44.23;;;6.53;;
9056;SDS011;4563;54.756;9.400;2023-01-31T13:04:15;65.43;;;11.93;;
9056;SDS011;4563;54.756;9.400;2023-01-31T13:06:56;57.80;;;12.60;;
9056;SDS011;4563;54.756;9.400;2023-01-31T13:09:27;37.27;;;4.00;;
9056;SDS011;4563;54.756;9.400;2023-01-31T13:11:57;51.60;;;11.00;;
9056;SDS011;4563;54.756;9.400;2023-01-31T13:14:30;55.07;;;8.10;;
9056;SDS011;4563;54.756;9.400;2023-01-31T13:17:01;51.70;;;9.47;;
9056;SDS011;4563;54.756;9.400;2023-01-31T13:19:31;43.77;;;5.10;;
9056;SDS011;4563;54.756;9.400;2023-01-31T13:22:01;42.83;;;6.57;;
9056;SDS011;4563;54.756;9.400;2023-01-31T13:24:36;39.10;;;5.27;;
9056;SDS011;4563;54.756;9.400;2023-01-31T13:27:07;40.83;;;4.50;;
9056;SDS011;4563;54.756;9.400;2023-01-31T13:29:42;43.67;;;6.37;;
9056;SDS011;4563;54.756;9.400;2023-01-31T13:32:14;41.73;;;4.97;;
9056;SDS011;4563;54.756;9.400;2023-01-31T13:34:48;45.70;;;6.23;;
9056;SDS011;4563;54.756;9.400;2023-01-31T13:37:19;36.23;;;4.97;;
9056;SDS011;4563;54.756;9.400;2023-01-31T13:39:48;33.87;;;5.77;;
9056;SDS011;4563;54.756;9.400;2023-01-31T13:42:18;31.27;;;4.10;;
9056;SDS011;4563;54.756;9.400;2023-01-31T13:44:46;32.97;;;5.63;;
9056;SDS011;4563;54.756;9.400;2023-01-31T13:47:15;49.03;;;5.77;;
9056;SDS011;4563;54.756;9.400;2023-01-31T13:49:46;33.43;;;5.10;;
9056;SDS011;4563;54.756;9.400;2023-01-31T13:52:18;33.90;;;4.57;;
9056;SDS011;4563;54.756;9.400;2023-01-31T13:54:50;38.40;;;5.57;;
9056;SDS011;4563;54.756;9.400;2023-01-31T13:57:22;32.23;;;3.60;;
9056;SDS011;4563;54.756;9.400;2023-01-31T13:59:52;39.07;;;4.57;;
9056;SDS011;4563;54.756;9.400;2023-01-31T14:02:21;30.70;;;4.83;;
9056;SDS011;4563;54.756;9.400;2023-01-31T14:04:48;33.23;;;5.00;;
9056;SDS011;4563;54.756;9.400;2023-01-31T14:07:16;36.57;;;4.87;;
9056;SDS011;4563;54.756;9.400;2023-01-31T14:09:45;32.87;;;5.30;;
9056;SDS011;4563;54.756;9.400;2023-01-31T14:15:50;42.03;;;4.63;;
9056;SDS011;4563;54.756;9.400;2023-01-31T14:18:40;26.07;;;4.97;;
9056;SDS011;4563;54.756;9.400;2023-01-31T14:24:18;19.30;;;3.87;;
9056;SDS011;4563;54.756;9.400;2023-01-31T14:26:51;25.20;;;3.97;;
9056;SDS011;4563;54.756;9.400;2023-01-31T14:29:19;28.70;;;4.63;;
9056;SDS011;4563;54.756;9.400;2023-01-31T14:31:48;21.20;;;3.57;;
9056;SDS011;4563;54.756;9.400;2023-01-31T14:34:16;30.80;;;5.03;;
9056;SDS011;4563;54.756;9.400;2023-01-31T14:36:49;25.60;;;4.87;;
9056;SDS011;4563;54.756;9.400;2023-01-31T14:39:27;31.20;;;4.70;;
9056;SDS011;4563;54.756;9.400;2023-01-31T14:42:18;27.70;;;5.80;;
9056;SDS011;4563;54.756;9.400;2023-01-31T14:45:18;36.43;;;6.97;;
9056;SDS011;4563;54.756;9.400;2023-01-31T14:47:57;26.43;;;5.67;;
9056;SDS011;4563;54.756;9.400;2023-01-31T14:56:38;35.63;;;6.47;;
9056;SDS011;4563;54.756;9.400;2023-01-31T14:59:31;30.50;;;5.43;;
9056;SDS011;4563;54.756;9.400;2023-01-31T15:02:00;32.50;;;4.77;;
9056;SDS011;4563;54.756;9.400;2023-01-31T15:04:53;30.90;;;5.67;;
9056;SDS011;4563;54.756;9.400;2023-01-31T15:07:22;31.87;;;5.20;;
9056;SDS011;4563;54.756;9.400;2023-01-31T15:09:49;24.03;;;5.20;;
9056;SDS011;4563;54.756;9.400;2023-01-31T15:15:20;25.87;;;4.57;;
9056;SDS011;4563;54.756;9.400;2023-01-31T15:17:53;26.87;;;4.27;;
9056;SDS011;4563;54.756;9.400;2023-01-31T15:20:22;13.03;;;1.93;;
9056;SDS011;4563;54.756;9.400;2023-01-31T15:22:55;7.40;;;1.67;;
9056;SDS011;4563;54.756;9.400;2023-01-31T15:25:30;5.53;;;0.90;;
9056;SDS011;4563;54.756;9.400;2023-01-31T15:27:59;7.77;;;1.07;;
9056;SDS011;4563;54.756;9.400;2023-01-31T15:30:30;7.27;;;1.17;;
9056;SDS011;4563;54.756;9.400;2023-01-31T15:33:01;8.77;;;2.33;;
9056;SDS011;4563;54.756;9.400;2023-01-31T15:35:33;6.80;;;1.60;;
9056;SDS011;4563;54.756;9.400;2023-01-31T15:38:03;8.67;;;2.17;;
9056;SDS011;4563;54.756;9.400;2023-01-31T15:40:37;10.10;;;2.43;;
9056;SDS011;4563;54.756;9.400;2023-01-31T15:43:16;14.20;;;2.17;;